Monreale, Italy

6:13 AM CEST on May 06, 2015 (GMT +0200)
Portella della Paglia - Giacalone (PA) | | Change Station
CLOSE
Current Station
Personal Weather Station
Location: (*MeteoSicilia*), Sicily
Elevation: 2575 ft
Nearby Weather Stations
Active Advisory: Extreme high temperature

Elev 2575 ft 38.01 °N, 13.24 °E | Updated 4 seconds ago

Clear
Clear
69.8 °F
Feels Like 69.8 °F
N
0.0
Wind Variable Wind from NW
Gusts 0.0 mph

Today
High -- | Low -- °F
--% Chance of Precip.
Yesterday
High -- | Low -- °F
Precip. -- in
6:05 AM 8:02 PM
Waning Gibbous, 96% visible
Pressure 29.92 in
Visibility -9999.0 miles
Clouds
Dew Point 42 °F
Humidity 36%
Rainfall 0.00 in
Snow Depth Not available.
UV out of 12
Pollen Not available.
Air Quality Not available.
Flu Activity Not available.
METAR LICT 060355Z 11005KT CAVOK 20/07 Q1013 RMK SKC VIS MIN 9999 WIND THR13 /////KT BLU

More Conditions Fewer Conditions

Pressure 29.92 in
Visibility -9999.0 miles
Clouds
Dew Point 42 °F
Humidity 36%
Rainfall 0.00 in
Snow Depth Not available.
UV out of 12
Pollen Not available.
Air Quality Not available.
Flu Activity Not available.
METAR LICT 060355Z 11005KT CAVOK 20/07 Q1013 RMK SKC VIS MIN 9999 WIND THR13 /////KT BLU

More Conditions Fewer Conditions

10-Day Weather Forecast

Almanac

Astronomy

May. 06, 2015 Rise Set
Actual Time
Civil Twilight
Nautical Twilight
Astronomical Twilight
Moon
Length of Visible Light
Length of Day
Tomorrow will be .
, % of the Moon is Illuminated

Today's Extremes

Country Highs Country Lows

Community

WunderPhotos

Upload Photos

1,819,021 photos uploaded!

WunderBlogs® & News

Nearby

Air Quality

  Air Quality AQ Index Pollutant
Not available.

Snow Depth

Station Depth Elevation

Earthquake Activity

City Distance Mag. Time & Date
Minimum magnitude displayed is 2.5.

Coastal Water Temperatures

Place Temperature

Stations

Nearby Weather Stations

Station Location Temp. Windchill Dew Point Humidity Wind Precip. Elev Updated Type